Argonia, Kansas
Current Conditions -  °F | °C
As of 7:53 PM on Saturday 25 Oct 2014 (Local Time) from KICT Reporting Station
Clear Clear  
Wind Chill: 23°   Ceiling: Unl
Heat Index: 23°   Visibility: 10mi
Dew Point: 14°   Wind: 8mph
Humidity: 59%   Direction: 150°SSE
Pressure: 29.97"   Gusts: NA
Location:  37.27°N, 97.77°W
Report Text: KICT 260053Z 15007KT 10SM CLR 23/14 A2997 RMK AO2 SLP142 T02280144
Loading
Personal Weather Stations






























Interactive Weather Map
Tropical Storm Tracking
New forecast layout! Learn more

10-Day Weather Forecast

Advertisements
Track Severe Weather on mobile